Time;durP1;ratioP1;P1;durP2;ratioP2;P2;SDS_P1;SDS_P2;PMS_P1;PMS_P2;Temp;Humidity;BMP_temperature;BMP_pressure;BME280_temperature;BME280_humidity;BME280_pressure;Samples;Min_cycle;Max_cycle;Signal;HPM_P1;HPM_P2
2020/12/21 00:00:58;;;;;;;7.47;6.70;;;7.40;99.90;;;;;;5028904;28;20682;-77
2020/12/21 00:03:23;;;;;;;7.63;6.50;;;7.40;99.90;;;;;;5031359;28;20179;-77
2020/12/21 00:05:49;;;;;;;7.20;6.10;;;7.40;99.90;;;;;;5030954;28;20696;-77
2020/12/21 00:08:14;;;;;;;6.97;6.23;;;7.40;99.90;;;;;;5036364;28;20641;-77
2020/12/21 00:10:40;;;;;;;7.00;6.30;;;7.50;99.90;;;;;;5033306;28;20190;-77
2020/12/21 00:13:06;;;;;;;6.73;6.13;;;7.40;99.90;;;;;;5028102;28;20192;-76
2020/12/21 00:15:31;;;;;;;6.90;6.30;;;7.40;99.90;;;;;;5039798;28;20206;-77
2020/12/21 00:17:57;;;;;;;7.50;6.77;;;7.50;99.90;;;;;;5032881;28;20441;-76
2020/12/21 00:20:22;;;;;;;7.53;6.73;;;7.40;99.90;;;;;;5031956;28;20179;-76
2020/12/21 00:22:47;;;;;;;6.40;5.60;;;7.40;99.90;;;;;;5031611;28;20646;-76
2020/12/21 00:25:13;;;;;;;6.93;6.03;;;7.40;99.90;;;;;;5028904;28;20183;-77
2020/12/21 00:27:39;;;;;;;5.97;5.47;;;7.40;99.90;;;;;;5032328;28;20546;-77
2020/12/21 00:30:05;;;;;;;7.87;6.03;;;7.30;99.90;;;;;;5033736;28;20252;-76
2020/12/21 00:32:33;;;;;;;7.20;6.28;;;7.30;99.90;;;;;;5032224;28;20681;-77
2020/12/21 00:34:59;;;;;;;6.60;6.00;;;7.30;99.90;;;;;;5030633;28;20278;-77
2020/12/21 00:37:24;;;;;;;8.23;7.37;;;7.20;99.90;;;;;;5031189;28;20302;-77
2020/12/21 00:39:50;;;;;;;9.30;7.47;;;7.20;99.90;;;;;;5033134;28;20792;-77
2020/12/21 00:42:15;;;;;;;7.10;6.50;;;7.10;99.90;;;;;;5031440;28;20192;-76
2020/12/21 00:44:41;;;;;;;7.50;6.60;;;7.10;99.90;;;;;;5028146;28;20196;-76
2020/12/21 00:47:06;;;;;;;7.33;6.53;;;7.00;99.90;;;;;;5032335;28;20309;-77
2020/12/21 00:49:32;;;;;;;6.17;5.57;;;6.90;99.90;;;;;;5032351;28;20483;-77
2020/12/21 00:51:57;;;;;;;9.03;6.70;;;6.80;99.90;;;;;;5031905;28;20194;-78
2020/12/21 00:54:23;;;;;;;6.60;6.00;;;6.70;99.90;;;;;;5030323;28;20658;-76
2020/12/21 00:56:48;;;;;;;6.70;5.70;;;6.60;99.90;;;;;;5028060;28;20313;-77
2020/12/21 00:59:14;;;;;;;6.50;5.83;;;6.50;99.90;;;;;;5027448;28;20180;-77
2020/12/21 01:01:39;;;;;;;6.17;5.57;;;6.50;99.90;;;;;;5027885;28;20186;-76
2020/12/21 01:04:05;;;;;;;6.30;5.60;;;6.40;99.90;;;;;;5031605;28;20321;-76
2020/12/21 01:06:32;;;;;;;7.33;6.63;;;6.40;99.90;;;;;;5028091;28;20232;-76
2020/12/21 01:08:58;;;;;;;7.07;6.00;;;6.40;99.90;;;;;;5018736;28;20441;-77
2020/12/21 01:11:28;;;;;;;6.80;5.45;;;6.40;99.90;;;;;;5023823;28;20187;-76
2020/12/21 01:13:54;;;;;;;7.05;5.90;;;6.40;99.90;;;;;;5022506;28;20175;-77
2020/12/21 01:16:20;;;;;;;6.07;5.47;;;6.40;99.90;;;;;;5031050;28;20207;-76
2020/12/21 01:18:46;;;;;;;5.93;5.25;;;6.40;99.90;;;;;;5032398;28;20583;-76
2020/12/21 01:21:21;;;;;;;8.20;5.87;;;6.40;99.90;;;;;;5028144;28;20196;-76
2020/12/21 01:23:46;;;;;;;6.43;5.43;;;6.40;99.90;;;;;;5029282;28;20210;-77
2020/12/21 01:26:12;;;;;;;6.20;5.60;;;6.40;99.90;;;;;;5028070;28;20219;-77
2020/12/21 01:28:37;;;;;;;6.90;5.60;;;6.40;99.90;;;;;;5032628;28;20180;-78
2020/12/21 01:31:03;;;;;;;7.00;5.57;;;6.30;99.90;;;;;;5030540;28;20655;-77
2020/12/21 01:33:28;;;;;;;5.90;5.40;;;6.30;99.90;;;;;;5019260;28;20186;-78
2020/12/21 01:35:54;;;;;;;5.97;4.90;;;6.20;99.90;;;;;;5027773;28;20250;-77
2020/12/21 01:38:19;;;;;;;5.60;5.10;;;6.10;99.90;;;;;;5023378;28;20651;-77
2020/12/21 01:40:45;;;;;;;5.97;5.17;;;6.00;99.90;;;;;;5023663;28;20183;-78
2020/12/21 01:43:10;;;;;;;5.47;4.97;;;5.90;99.90;;;;;;5027622;28;20740;-78
2020/12/21 01:45:35;;;;;;;7.80;5.67;;;5.70;99.90;;;;;;5019435;28;20187;-76
2020/12/21 01:48:01;;;;;;;7.03;5.83;;;5.70;99.90;;;;;;5032009;28;20231;-76
2020/12/21 01:50:27;;;;;;;5.70;5.10;;;5.60;99.90;;;;;;5032028;28;20553;-76
2020/12/21 01:52:53;;;;;;;5.03;4.53;;;5.50;99.90;;;;;;5026907;28;20182;-77
2020/12/21 01:55:20;;;;;;;5.70;4.20;;;5.40;99.90;;;;;;5015774;28;20190;-76
2020/12/21 01:57:45;;;;;;;6.00;5.07;;;5.30;99.90;;;;;;5018770;28;20213;-76
2020/12/21 02:00:11;;;;;;;6.10;5.47;;;5.30;99.90;;;;;;5030643;28;20183;-76
2020/12/21 02:02:37;;;;;;;5.57;4.97;;;5.20;99.90;;;;;;5026275;28;20194;-76
2020/12/21 02:05:03;;;;;;;5.27;4.80;;;5.20;99.90;;;;;;5031914;28;20176;-77
2020/12/21 02:07:28;;;;;;;5.38;4.78;;;5.10;99.90;;;;;;5017561;28;20439;-76
2020/12/21 02:09:54;;;;;;;6.53;4.53;;;5.10;99.90;;;;;;5031881;28;20237;-77
2020/12/21 02:12:20;;;;;;;5.33;4.73;;;5.20;99.90;;;;;;5031835;28;20556;-77
2020/12/21 02:14:46;;;;;;;7.50;5.60;;;5.20;99.90;;;;;;5027341;28;20446;-77
2020/12/21 02:17:11;;;;;;;6.20;5.60;;;5.30;99.90;;;;;;5031620;28;20654;-76
2020/12/21 02:19:37;;;;;;;7.30;5.27;;;5.30;99.90;;;;;;5031973;28;20211;-76
2020/12/21 02:22:02;;;;;;;5.87;5.27;;;5.40;99.90;;;;;;5029393;28;20262;-76
2020/12/21 02:24:28;;;;;;;6.40;5.70;;;5.50;99.90;;;;;;5029796;28;20175;-77
2020/12/21 02:26:54;;;;;;;5.30;4.80;;;5.50;99.90;;;;;;5034067;28;20218;-77
2020/12/21 02:29:19;;;;;;;5.27;4.77;;;5.60;99.90;;;;;;5034578;28;20650;-76
2020/12/21 02:31:45;;;;;;;5.20;4.70;;;5.60;99.90;;;;;;5030045;28;20226;-77
2020/12/21 02:34:10;;;;;;;5.70;4.83;;;5.70;99.90;;;;;;5018448;28;20207;-76
2020/12/21 02:36:36;;;;;;;4.83;4.33;;;5.70;99.90;;;;;;5020306;28;20639;-76
2020/12/21 02:39:02;;;;;;;5.73;5.13;;;5.70;99.90;;;;;;5029056;28;20222;-77
2020/12/21 02:41:27;;;;;;;6.40;5.03;;;5.70;99.90;;;;;;5035009;28;20184;-76
2020/12/21 02:43:53;;;;;;;6.10;5.37;;;5.60;99.90;;;;;;5029128;28;20567;-77
2020/12/21 02:46:18;;;;;;;5.80;5.20;;;5.60;99.90;;;;;;5023964;28;20658;-77
2020/12/21 02:48:47;;;;;;;5.40;4.90;;;5.50;99.90;;;;;;5035286;28;20191;-77
2020/12/21 02:51:16;;;;;;;4.97;4.47;;;5.40;99.90;;;;;;5033745;28;20230;-77
2020/12/21 02:53:42;;;;;;;5.80;4.70;;;5.30;99.90;;;;;;5030582;28;20639;-77
2020/12/21 02:56:08;;;;;;;6.30;4.60;;;5.20;99.90;;;;;;5035017;28;20214;-76
2020/12/21 02:58:34;;;;;;;5.10;4.60;;;5.10;99.90;;;;;;5030815;28;20963;-77
2020/12/21 03:00:59;;;;;;;4.83;3.67;;;5.00;99.90;;;;;;5025978;28;20195;-77
2020/12/21 03:03:25;;;;;;;5.07;4.23;;;4.90;99.90;;;;;;5028572;28;20203;-77
2020/12/21 03:05:50;;;;;;;4.80;4.10;;;4.80;99.90;;;;;;5016922;28;20192;-76
2020/12/21 03:08:16;;;;;;;5.10;4.50;;;4.70;99.90;;;;;;5027355;28;20187;-77
2020/12/21 03:10:42;;;;;;;4.13;3.73;;;4.70;99.90;;;;;;5034660;28;20186;-77
2020/12/21 03:13:08;;;;;;;5.78;4.82;;;4.60;99.90;;;;;;5030007;28;20438;-77
2020/12/21 03:15:34;;;;;;;5.20;4.70;;;4.50;99.90;;;;;;5024841;28;20206;-76
2020/12/21 03:17:59;;;;;;;7.50;4.20;;;4.40;99.90;;;;;;5031512;28;20552;-77
2020/12/21 03:20:25;;;;;;;5.23;4.60;;;4.40;99.90;;;;;;5031505;28;20513;-76
2020/12/21 03:22:50;;;;;;;4.73;3.80;;;4.30;99.90;;;;;;5030097;28;20218;-76
2020/12/21 03:25:16;;;;;;;6.00;4.20;;;4.20;99.90;;;;;;5034325;28;20184;-77
2020/12/21 03:27:42;;;;;;;3.83;3.53;;;4.20;99.90;;;;;;5024553;28;20187;-76
2020/12/21 03:30:09;;;;;;;4.17;3.70;;;4.10;99.90;;;;;;5045565;28;20450;-76
2020/12/21 03:32:35;;;;;;;4.10;3.75;;;4.20;99.90;;;;;;5033548;28;20438;-76
2020/12/21 03:35:01;;;;;;;4.00;3.60;;;4.00;99.90;;;;;;5020868;28;20198;-76
2020/12/21 03:37:27;;;;;;;4.78;4.15;;;4.00;99.90;;;;;;5032168;28;20473;-76
2020/12/21 03:39:52;;;;;;;5.10;4.60;;;4.00;99.90;;;;;;5029774;28;20712;-76
2020/12/21 03:42:18;;;;;;;5.57;4.17;;;3.90;99.90;;;;;;5021202;28;20196;-76
2020/12/21 03:44:44;;;;;;;3.40;3.10;;;3.90;99.90;;;;;;5015558;28;20183;-77
2020/12/21 03:47:09;;;;;;;4.70;4.13;;;3.90;99.90;;;;;;5033183;28;20227;-77
2020/12/21 03:49:35;;;;;;;4.23;3.87;;;3.90;99.90;;;;;;5033941;28;20219;-76
2020/12/21 03:52:00;;;;;;;4.47;3.73;;;3.80;99.90;;;;;;5025174;28;20437;-76
2020/12/21 03:54:26;;;;;;;5.07;4.10;;;3.80;99.90;;;;;;5025326;28;20191;-76
2020/12/21 03:56:51;;;;;;;3.60;3.30;;;3.80;99.90;;;;;;5033324;28;20309;-76
2020/12/21 03:59:17;;;;;;;5.10;4.27;;;3.70;99.90;;;;;;5029301;28;20270;-77
2020/12/21 04:01:42;;;;;;;4.17;3.77;;;3.70;99.90;;;;;;5034015;28;20214;-76
2020/12/21 04:04:08;;;;;;;4.93;4.20;;;3.70;99.90;;;;;;5017772;28;20682;-76
2020/12/21 04:06:35;;;;;;;4.00;3.50;;;3.70;99.90;;;;;;5025146;28;20193;-76
2020/12/21 04:09:01;;;;;;;4.65;3.55;;;3.70;99.90;;;;;;5030670;28;20179;-77
2020/12/21 04:11:26;;;;;;;4.47;4.07;;;3.60;99.90;;;;;;5032912;28;20266;-76
2020/12/21 04:13:52;;;;;;;4.50;4.10;;;3.60;99.90;;;;;;5029733;28;20509;-76
2020/12/21 04:16:17;;;;;;;4.50;4.10;;;3.60;99.90;;;;;;5031570;28;20214;-76
2020/12/21 04:18:43;;;;;;;3.90;3.60;;;3.60;99.90;;;;;;5033474;28;20219;-76
2020/12/21 04:21:12;;;;;;;5.17;4.27;;;3.60;99.90;;;;;;5029968;28;20199;-76
2020/12/21 04:23:38;;;;;;;5.90;4.47;;;3.60;99.90;;;;;;5024428;28;20203;-76
2020/12/21 04:26:04;;;;;;;5.93;5.05;;;3.70;99.90;;;;;;5032976;28;20195;-76
2020/12/21 04:28:30;;;;;;;7.13;6.43;;;3.70;99.90;;;;;;5030589;28;20183;-76
2020/12/21 04:30:56;;;;;;;6.37;4.70;;;3.70;99.90;;;;;;5032210;28;20370;-76
2020/12/21 04:33:21;;;;;;;7.30;5.47;;;3.70;99.90;;;;;;5035087;28;20525;-76
2020/12/21 04:35:47;;;;;;;5.90;5.30;;;3.70;99.90;;;;;;5032684;28;20207;-77
2020/12/21 04:38:12;;;;;;;6.90;4.97;;;3.70;99.90;;;;;;5029236;28;20179;-76
2020/12/21 04:40:38;;;;;;;8.67;5.33;;;3.70;99.90;;;;;;5028359;28;20591;-76
2020/12/21 04:43:05;;;;;;;6.85;4.97;;;3.80;99.90;;;;;;5032171;28;20840;-76
2020/12/21 04:45:33;;;;;;;6.45;5.72;;;3.70;99.90;;;;;;5034685;28;20183;-76
2020/12/21 04:48:00;;;;;;;4.72;4.22;;;3.60;99.90;;;;;;5025666;28;20280;-76
2020/12/21 04:50:32;;;;;;;4.72;4.18;;;3.60;99.90;;;;;;5031021;28;20696;-76
2020/12/21 04:52:58;;;;;;;7.05;4.70;;;3.50;99.90;;;;;;5028177;28;20661;-76
2020/12/21 04:55:23;;;;;;;9.60;4.47;;;3.50;99.90;;;;;;5031567;28;20270;-76
2020/12/21 04:57:57;;;;;;;4.57;4.17;;;3.50;99.90;;;;;;5031261;28;20274;-76
2020/12/21 05:00:24;;;;;;;5.30;4.32;;;3.50;99.90;;;;;;5031503;28;20184;-76
2020/12/21 05:02:50;;;;;;;4.63;4.10;;;3.50;99.90;;;;;;5030582;28;20546;-77
2020/12/21 05:05:40;;;;;;;4.70;3.70;;;3.50;99.90;;;;;;5031790;28;20180;-76
2020/12/21 05:08:26;;;;;;;3.65;3.35;;;3.60;99.90;;;;;;5035602;28;20237;-76
2020/12/21 05:11:05;;;;;;;5.28;3.53;;;3.60;99.90;;;;;;5030629;28;20214;-76
2020/12/21 05:13:32;;;;;;;5.38;4.80;;;3.70;99.90;;;;;;5032223;28;20190;-77
2020/12/21 05:15:59;;;;;;;5.25;4.70;;;3.80;99.90;;;;;;5029211;28;20702;-76
2020/12/21 05:18:29;;;;;;;5.50;4.88;;;3.80;99.90;;;;;;5031869;28;20614;-76
2020/12/21 05:21:03;;;;;;;4.95;4.47;;;3.80;99.90;;;;;;5031814;28;20183;-76
2020/12/21 05:23:29;;;;;;;4.88;4.25;;;3.90;99.90;;;;;;5028208;28;20262;-76
2020/12/21 05:26:11;;;;;;;6.15;4.43;;;3.90;99.90;;;;;;5031488;28;20234;-76
2020/12/21 05:28:38;;;;;;;5.53;4.22;;;4.00;99.90;;;;;;5027256;28;20190;-76
2020/12/21 05:31:09;;;;;;;5.25;4.63;;;4.00;99.90;;;;;;5030768;28;20175;-76
2020/12/21 05:33:43;;;;;;;7.88;5.28;;;4.00;99.90;;;;;;5030247;28;20234;-77
2020/12/21 05:36:16;;;;;;;5.35;4.40;;;4.10;99.90;;;;;;5031417;28;20221;-76
2020/12/21 05:38:42;;;;;;;5.40;4.53;;;4.10;99.90;;;;;;5031011;28;20179;-77
2020/12/21 05:41:16;;;;;;;7.60;4.60;;;4.10;99.90;;;;;;5028117;28;20195;-76
2020/12/21 05:43:41;;;;;;;5.20;4.70;;;4.10;99.90;;;;;;5031965;28;20266;-76
2020/12/21 05:46:28;;;;;;;4.83;4.17;;;4.00;99.90;;;;;;5030712;28;20278;-76
2020/12/21 05:48:56;;;;;;;5.13;3.80;;;3.90;99.90;;;;;;5031173;28;20197;-76
2020/12/21 05:51:38;;;;;;;4.78;4.35;;;3.90;99.90;;;;;;5031552;28;20229;-76
2020/12/21 05:54:05;;;;;;;5.30;4.10;;;3.90;99.90;;;;;;5034903;28;20211;-76
2020/12/21 05:56:35;;;;;;;4.78;4.28;;;3.80;99.90;;;;;;5028520;28;20238;-76
2020/12/21 05:59:02;;;;;;;4.63;4.00;;;3.90;99.90;;;;;;5028151;28;20187;-76
2020/12/21 06:01:27;;;;;;;4.82;4.28;;;3.90;99.90;;;;;;5031363;28;20179;-75
2020/12/21 06:04:03;;;;;;;5.20;4.30;;;3.90;99.90;;;;;;5031843;28;20186;-75
2020/12/21 06:06:33;;;;;;;4.47;3.92;;;3.90;99.90;;;;;;5031809;28;20309;-76
2020/12/21 06:09:04;;;;;;;4.00;3.70;;;3.90;99.90;;;;;;5032891;28;20548;-78
2020/12/21 06:11:34;;;;;;;7.45;6.65;;;3.80;99.90;;;;;;5034130;28;20270;-77
2020/12/21 06:14:05;;;;;;;13.77;9.68;;;3.80;99.90;;;;;;5033288;28;20210;-77
2020/12/21 06:16:35;;;;;;;25.15;20.08;;;3.70;99.90;;;;;;5034083;28;20225;-77
2020/12/21 06:19:08;;;;;;;34.72;27.67;;;3.70;99.90;;;;;;5029064;28;20557;-77
2020/12/21 06:21:36;;;;;;;27.38;24.17;;;3.60;99.90;;;;;;5030820;28;20622;-76
2020/12/21 06:24:02;;;;;;;18.35;16.48;;;3.60;99.90;;;;;;5033406;28;20183;-76
2020/12/21 06:26:36;;;;;;;14.85;13.27;;;3.60;99.90;;;;;;5028813;28;20175;-76
2020/12/21 06:29:10;;;;;;;13.13;10.95;;;3.50;99.90;;;;;;5030304;28;20198;-76
2020/12/21 06:31:52;;;;;;;11.18;9.60;;;3.50;99.90;;;;;;5025925;28;20210;-76
2020/12/21 06:34:31;;;;;;;12.43;9.85;;;3.50;99.90;;;;;;5035263;28;20183;-76
2020/12/21 06:37:19;;;;;;;10.65;8.98;;;3.50;99.90;;;;;;5030332;28;20226;-76
2020/12/21 06:39:44;;;;;;;10.02;9.02;;;3.50;99.90;;;;;;5034708;28;20193;-76
2020/12/21 06:42:20;;;;;;;10.13;8.93;;;3.60;99.90;;;;;;5034970;28;20542;-76
2020/12/21 06:44:46;;;;;;;8.38;7.57;;;3.60;99.90;;;;;;5030756;28;20233;-77
2020/12/21 06:47:12;;;;;;;6.70;5.67;;;3.60;99.90;;;;;;5033919;28;20227;-76
2020/12/21 06:49:39;;;;;;;5.55;4.90;;;3.60;99.90;;;;;;5034724;28;20262;-76
2020/12/21 06:52:05;;;;;;;6.70;5.57;;;3.60;99.90;;;;;;5034245;28;20187;-76
2020/12/21 06:54:30;;;;;;;6.20;5.45;;;3.50;99.90;;;;;;5034817;28;20191;-76
2020/12/21 06:56:56;;;;;;;6.40;5.80;;;3.50;99.90;;;;;;5031998;28;20215;-76
2020/12/21 06:59:24;;;;;;;7.82;4.85;;;3.50;99.90;;;;;;5027643;28;20593;-76
2020/12/21 07:01:51;;;;;;;5.43;4.95;;;3.50;99.90;;;;;;5030956;28;20187;-76
2020/12/21 07:04:21;;;;;;;5.63;5.13;;;3.50;99.90;;;;;;5032117;28;20219;-76
2020/12/21 07:06:48;;;;;;;7.18;6.57;;;3.50;99.90;;;;;;5030790;28;20200;-76
2020/12/21 07:09:16;;;;;;;7.70;5.97;;;3.50;99.90;;;;;;5034264;28;20593;-76
2020/12/21 07:11:42;;;;;;;6.65;6.05;;;3.60;99.90;;;;;;5033206;28;20549;-75
2020/12/21 07:14:13;;;;;;;10.52;6.13;;;3.70;99.90;;;;;;5033823;28;20186;-76
2020/12/21 07:16:39;;;;;;;9.02;5.68;;;3.70;99.90;;;;;;5033275;28;20227;-77
2020/12/21 07:19:04;;;;;;;6.17;4.57;;;3.80;99.90;;;;;;5033748;28;20258;-77
2020/12/21 07:21:33;;;;;;;6.23;5.20;;;3.80;99.90;;;;;;5033992;28;20199;-77
2020/12/21 07:23:59;;;;;;;5.80;5.22;;;3.80;99.90;;;;;;5035553;28;20222;-77
2020/12/21 07:26:26;;;;;;;5.77;5.23;;;3.80;99.90;;;;;;5039840;28;20572;-77
2020/12/21 07:28:52;;;;;;;5.40;4.40;;;4.00;99.90;;;;;;5032812;28;20517;-77
2020/12/21 07:31:20;;;;;;;4.70;4.20;;;3.90;99.90;;;;;;5028227;28;20190;-77
2020/12/21 07:33:54;;;;;;;4.60;4.20;;;3.80;99.90;;;;;;5032327;28;20240;-78
2020/12/21 07:36:22;;;;;;;4.05;3.75;;;3.80;99.90;;;;;;5028379;28;20206;-77
2020/12/21 07:38:48;;;;;;;5.85;5.22;;;3.80;99.90;;;;;;5030363;28;20196;-77
2020/12/21 07:41:15;;;;;;;5.13;4.60;;;3.80;99.90;;;;;;5038201;28;20187;-77
2020/12/21 07:43:44;;;;;;;5.82;5.20;;;3.80;99.90;;;;;;5029566;28;20551;-78
2020/12/21 07:46:18;;;;;;;6.53;5.10;;;3.80;99.90;;;;;;5037033;28;20187;-78
2020/12/21 07:48:45;;;;;;;6.15;5.10;;;3.90;99.90;;;;;;5028110;28;20191;-78
2020/12/21 07:51:10;;;;;;;7.93;6.20;;;3.90;99.90;;;;;;5028175;28;20191;-78
2020/12/21 07:53:40;;;;;;;9.07;6.10;;;3.90;99.90;;;;;;5031990;28;20195;-77
2020/12/21 07:56:06;;;;;;;8.80;7.45;;;4.00;99.90;;;;;;5030646;28;20709;-77
2020/12/21 07:58:34;;;;;;;10.03;7.47;;;4.00;99.90;;;;;;5032876;28;20191;-77
2020/12/21 08:01:00;;;;;;;8.32;6.10;;;4.10;99.90;;;;;;5032542;28;20187;-77
2020/12/21 08:03:28;;;;;;;6.83;5.73;;;4.20;99.90;;;;;;5027929;28;20187;-78
2020/12/21 08:06:16;;;;;;;6.43;5.22;;;4.30;99.90;;;;;;5027514;28;20191;-78
2020/12/21 08:08:42;;;;;;;6.43;5.32;;;4.30;99.90;;;;;;5023172;28;20655;-77
2020/12/21 08:11:15;;;;;;;5.73;5.13;;;4.40;99.90;;;;;;5030545;28;20252;-77
2020/12/21 08:13:51;;;;;;;7.35;5.63;;;4.40;99.90;;;;;;5028024;28;20546;-77
2020/12/21 08:16:24;;;;;;;7.82;5.03;;;4.50;99.90;;;;;;5028409;28;20565;-77
2020/12/21 08:18:53;;;;;;;6.85;5.35;;;4.60;99.90;;;;;;5033062;28;20257;-77
2020/12/21 08:21:25;;;;;;;6.65;5.90;;;4.70;99.90;;;;;;5031765;28;20191;-77
2020/12/21 08:23:56;;;;;;;6.47;5.80;;;4.80;99.90;;;;;;5022613;28;20179;-78
2020/12/21 08:26:22;;;;;;;6.55;6.05;;;4.90;99.90;;;;;;5028854;28;20184;-77
2020/12/21 08:28:49;;;;;;;6.07;5.47;;;5.00;99.90;;;;;;5032815;28;20187;-77
2020/12/21 08:31:20;;;;;;;5.35;4.85;;;5.10;99.90;;;;;;5028464;28;20601;-77
2020/12/21 08:34:04;;;;;;;6.65;5.95;;;5.20;99.90;;;;;;5030455;28;20183;-77
2020/12/21 08:36:37;;;;;;;6.20;5.65;;;5.30;99.90;;;;;;5032510;28;20210;-77
2020/12/21 08:39:11;;;;;;;7.30;6.13;;;5.30;99.90;;;;;;5025313;28;20270;-77
2020/12/21 08:41:39;;;;;;;6.47;5.63;;;5.40;99.90;;;;;;5031278;28;20724;-77
2020/12/21 08:44:13;;;;;;;8.40;7.43;;;5.50;99.90;;;;;;5031693;28;20187;-77
2020/12/21 08:46:47;;;;;;;7.28;6.30;;;5.60;99.90;;;;;;5032114;28;20230;-77
2020/12/21 08:49:13;;;;;;;6.55;5.95;;;5.60;99.90;;;;;;5024734;28;20263;-77
2020/12/21 08:51:38;;;;;;;5.80;5.20;;;5.70;99.90;;;;;;5027020;28;20207;-77
2020/12/21 08:54:04;;;;;;;6.53;5.93;;;5.80;99.90;;;;;;5042207;28;20191;-78
2020/12/21 08:56:29;;;;;;;7.43;6.60;;;5.80;99.90;;;;;;5025578;28;20215;-77
2020/12/21 08:58:55;;;;;;;6.43;5.77;;;5.90;99.90;;;;;;5029054;28;20176;-78
2020/12/21 09:01:20;;;;;;;5.50;5.10;;;5.90;99.90;;;;;;5032683;28;20209;-77
2020/12/21 09:03:46;;;;;;;5.60;5.00;;;5.90;99.90;;;;;;5026038;28;20178;-77
2020/12/21 09:06:30;;;;;;;5.70;5.20;;;6.00;99.90;;;;;;5030164;28;20183;-77
2020/12/21 09:08:56;;;;;;;5.05;4.55;;;6.00;99.90;;;;;;5030708;28;20250;-78
2020/12/21 09:11:21;;;;;;;5.47;4.43;;;6.00;99.90;;;;;;5031479;28;20266;-77
2020/12/21 09:13:48;;;;;;;5.67;5.07;;;6.10;99.90;;;;;;5035044;28;20179;-78
2020/12/21 09:16:18;;;;;;;5.15;4.03;;;6.20;99.90;;;;;;5031873;28;20314;-78
2020/12/21 09:18:44;;;;;;;6.40;5.80;;;6.30;99.90;;;;;;5030985;28;20321;-77
2020/12/21 09:21:16;;;;;;;7.77;5.40;;;6.40;99.90;;;;;;5030828;28;20191;-78
2020/12/21 09:23:41;;;;;;;6.47;5.85;;;6.50;99.90;;;;;;5028442;28;20469;-78
2020/12/21 09:26:07;;;;;;;7.80;6.20;;;6.60;99.90;;;;;;5029238;28;20603;-78
2020/12/21 09:28:33;;;;;;;7.00;6.40;;;6.80;99.90;;;;;;5031209;28;20175;-78
2020/12/21 09:30:58;;;;;;;6.73;6.03;;;6.80;99.90;;;;;;5026534;28;20186;-78
2020/12/21 09:33:24;;;;;;;6.53;4.90;;;6.90;99.90;;;;;;5028726;28;20198;-78
2020/12/21 09:35:49;;;;;;;5.40;4.90;;;7.00;99.90;;;;;;5025836;28;20734;-77
2020/12/21 09:38:15;;;;;;;5.73;5.03;;;7.10;99.90;;;;;;5029522;28;20187;-77
2020/12/21 09:40:40;;;;;;;6.00;5.27;;;7.20;99.90;;;;;;5034594;28;20639;-77
2020/12/21 09:43:06;;;;;;;9.20;5.70;;;7.30;99.90;;;;;;5030067;28;20191;-78
2020/12/21 09:45:31;;;;;;;6.83;5.10;;;7.40;99.90;;;;;;5032091;28;20628;-77
2020/12/21 09:47:57;;;;;;;5.93;5.20;;;7.50;99.90;;;;;;5011945;28;548531;-77
2020/12/21 09:50:22;;;;;;;6.57;5.77;;;7.60;99.90;;;;;;5031256;28;20269;-77
2020/12/21 09:52:48;;;;;;;5.23;4.83;;;7.70;99.90;;;;;;5027263;28;20257;-78
2020/12/21 09:55:15;;;;;;;6.13;5.53;;;7.80;99.90;;;;;;5026657;28;20249;-78
2020/12/21 09:57:41;;;;;;;11.80;6.95;;;7.90;99.90;;;;;;5030317;28;20214;-78
2020/12/21 10:00:06;;;;;;;5.67;5.10;;;7.90;99.90;;;;;;5029190;28;20190;-78
2020/12/21 10:02:32;;;;;;;5.90;5.27;;;8.00;99.90;;;;;;5030428;28;20182;-78
2020/12/21 10:04:57;;;;;;;6.67;5.80;;;8.10;99.90;;;;;;5034106;28;20179;-78
2020/12/21 10:07:23;;;;;;;6.57;5.97;;;8.20;99.90;;;;;;5038237;28;20247;-77
2020/12/21 10:09:48;;;;;;;6.73;6.03;;;8.30;99.90;;;;;;5029441;28;20191;-78
2020/12/21 10:12:14;;;;;;;6.03;5.50;;;8.30;99.90;;;;;;5028194;28;20266;-78
2020/12/21 10:14:42;;;;;;;6.00;5.40;;;8.40;99.90;;;;;;5027858;28;20293;-78
2020/12/21 10:17:08;;;;;;;6.07;5.47;;;8.40;99.90;;;;;;5035888;28;20587;-78
2020/12/21 10:19:34;;;;;;;6.33;5.73;;;8.40;99.90;;;;;;5031888;28;20197;-77
2020/12/21 10:21:59;;;;;;;5.93;5.53;;;8.50;99.90;;;;;;5022139;28;20713;-78
2020/12/21 10:24:25;;;;;;;5.40;5.00;;;8.50;99.90;;;;;;5024468;28;20789;-78
2020/12/21 10:26:50;;;;;;;6.77;6.17;;;8.50;99.90;;;;;;5029368;28;20258;-78
2020/12/21 10:29:16;;;;;;;5.57;5.07;;;8.50;99.90;;;;;;5030282;28;20183;-78
2020/12/21 10:31:41;;;;;;;6.77;6.10;;;8.50;99.90;;;;;;5026408;28;20574;-78
2020/12/21 10:34:07;;;;;;;6.50;5.90;;;8.50;99.90;;;;;;5027401;28;20207;-78
2020/12/21 10:36:33;;;;;;;7.43;6.77;;;8.50;99.90;;;;;;5025989;28;20216;-78
2020/12/21 10:38:58;;;;;;;7.00;6.30;;;8.60;99.90;;;;;;5029965;28;20190;-78
2020/12/21 10:41:29;;;;;;;7.20;6.60;;;8.60;99.90;;;;;;5026606;28;20656;-77
2020/12/21 10:43:55;;;;;;;6.47;5.90;;;8.60;99.90;;;;;;5025285;28;20195;-77
2020/12/21 10:46:21;;;;;;;7.90;7.20;;;8.60;99.90;;;;;;5025813;28;20195;-77
2020/12/21 10:48:47;;;;;;;7.80;7.05;;;8.60;99.90;;;;;;5037736;28;20182;-77
2020/12/21 10:51:12;;;;;;;7.13;6.35;;;8.60;99.90;;;;;;5037671;28;20709;-77
2020/12/21 10:53:38;;;;;;;8.27;7.57;;;8.60;99.90;;;;;;5028589;28;20199;-77
2020/12/21 10:56:03;;;;;;;10.17;9.17;;;8.60;99.90;;;;;;5025254;28;20214;-77
2020/12/21 10:58:29;;;;;;;11.10;9.63;;;8.60;99.90;;;;;;5032893;28;20538;-77
2020/12/21 11:00:54;;;;;;;10.40;9.60;;;8.70;99.90;;;;;;5028987;28;20187;-77
2020/12/21 11:03:20;;;;;;;13.57;12.17;;;8.70;99.90;;;;;;5029584;28;20746;-77
2020/12/21 11:05:45;;;;;;;16.83;15.23;;;8.80;99.90;;;;;;5025815;28;20188;-77
2020/12/21 11:08:10;;;;;;;12.20;10.90;;;8.90;99.90;;;;;;5029250;28;20273;-77
2020/12/21 11:10:36;;;;;;;10.60;9.50;;;8.90;99.90;;;;;;5030845;28;20192;-77
2020/12/21 11:13:02;;;;;;;14.50;13.10;;;8.90;99.90;;;;;;5032257;28;20222;-77
2020/12/21 11:15:27;;;;;;;9.50;8.70;;;9.00;99.90;;;;;;5029953;28;20180;-77
2020/12/21 11:17:53;;;;;;;14.50;13.10;;;9.00;99.90;;;;;;5031684;28;20662;-78
2020/12/21 11:20:18;;;;;;;8.30;7.50;;;9.00;99.90;;;;;;5033335;28;20266;-77
2020/12/21 11:22:44;;;;;;;9.07;7.03;;;9.10;99.90;;;;;;5033951;28;20191;-78
2020/12/21 11:25:11;;;;;;;7.93;7.13;;;9.10;99.90;;;;;;5027217;28;20527;-78
2020/12/21 11:27:37;;;;;;;9.35;7.43;;;9.10;99.90;;;;;;5031703;28;20267;-77
2020/12/21 11:30:04;;;;;;;8.20;7.47;;;9.10;99.90;;;;;;5032162;28;20274;-77
2020/12/21 11:32:30;;;;;;;8.48;7.03;;;9.20;99.90;;;;;;5033206;28;20515;-77
2020/12/21 11:34:55;;;;;;;8.10;7.17;;;9.20;99.90;;;;;;5032944;28;20187;-78
2020/12/21 11:37:21;;;;;;;8.90;8.07;;;9.30;99.90;;;;;;5029315;28;20214;-77
2020/12/21 11:39:46;;;;;;;8.07;7.30;;;9.40;99.90;;;;;;5031594;28;20268;-78
2020/12/21 11:42:12;;;;;;;7.63;6.93;;;9.40;99.90;;;;;;5033720;28;20198;-77
2020/12/21 11:44:37;;;;;;;7.70;6.97;;;9.40;99.90;;;;;;5031518;28;20175;-78
2020/12/21 11:47:12;;;;;;;9.67;8.67;;;9.40;99.90;;;;;;5030380;28;20231;-77
2020/12/21 11:49:39;;;;;;;8.20;7.40;;;9.40;99.90;;;;;;5040121;28;20281;-77
2020/12/21 11:52:05;;;;;;;7.20;6.50;;;9.30;99.90;;;;;;5033831;28;20270;-77
2020/12/21 11:54:30;;;;;;;7.33;6.60;;;9.30;99.90;;;;;;5036070;28;20321;-77
2020/12/21 11:56:56;;;;;;;7.73;6.77;;;9.30;99.90;;;;;;5031353;28;20218;-77
2020/12/21 11:59:22;;;;;;;7.03;6.33;;;9.30;99.90;;;;;;5031857;28;20187;-77
2020/12/21 12:01:54;;;;;;;7.63;6.65;;;9.30;99.90;;;;;;5032233;28;20434;-78
2020/12/21 12:04:20;;;;;;;7.60;6.65;;;9.30;99.90;;;;;;5033420;28;20179;-78
2020/12/21 12:06:45;;;;;;;7.53;6.80;;;9.30;99.90;;;;;;5029542;28;20191;-78
2020/12/21 12:09:11;;;;;;;7.00;6.00;;;9.30;99.90;;;;;;5032462;28;20183;-77
2020/12/21 12:11:36;;;;;;;6.80;5.97;;;9.20;99.90;;;;;;5030005;28;20198;-77
2020/12/21 12:14:02;;;;;;;7.27;6.40;;;9.20;99.90;;;;;;5029969;28;20241;-77
2020/12/21 12:16:27;;;;;;;6.40;4.93;;;9.20;99.90;;;;;;5030028;28;20206;-77
2020/12/21 12:18:53;;;;;;;5.40;4.90;;;9.10;99.90;;;;;;5035330;28;20197;-78
2020/12/21 12:21:25;;;;;;;6.07;5.47;;;9.10;99.90;;;;;;5032522;28;20218;-77
2020/12/21 12:23:50;;;;;;;7.85;6.20;;;9.10;99.90;;;;;;5031376;28;20659;-77
2020/12/21 12:26:17;;;;;;;8.53;7.63;;;9.10;99.90;;;;;;5034686;28;20190;-77
2020/12/21 12:28:43;;;;;;;8.02;6.85;;;9.10;99.90;;;;;;5024364;28;20197;-78
2020/12/21 12:31:14;;;;;;;7.33;6.27;;;9.10;99.90;;;;;;5034074;28;20182;-80
2020/12/21 12:33:39;;;;;;;6.97;5.25;;;9.10;99.90;;;;;;5025298;28;20179;-77
2020/12/21 12:36:05;;;;;;;7.07;6.33;;;9.00;99.90;;;;;;5030189;28;20230;-78
2020/12/21 12:38:30;;;;;;;8.77;6.80;;;9.00;99.90;;;;;;5031688;28;20190;-78
2020/12/21 12:40:57;;;;;;;6.77;5.73;;;9.10;99.90;;;;;;5024068;28;20248;-78
2020/12/21 12:43:22;;;;;;;7.22;6.50;;;9.30;99.90;;;;;;5025799;28;20654;-77
2020/12/21 12:45:47;;;;;;;5.57;5.07;;;9.40;99.90;;;;;;5028990;28;20278;-77
2020/12/21 12:48:13;;;;;;;6.17;5.67;;;9.60;99.90;;;;;;5030699;28;20253;-77
2020/12/21 12:50:39;;;;;;;6.57;5.87;;;9.70;99.90;;;;;;5032344;28;20510;-77
2020/12/21 12:53:04;;;;;;;4.83;4.43;;;9.80;99.90;;;;;;5031137;28;20283;-78
2020/12/21 12:55:30;;;;;;;5.87;5.43;;;9.80;99.90;;;;;;5026586;28;20180;-77